sensor_id;sensor_type;location;lat;lon;timestamp;P1;durP1;ratioP1;P2;durP2;ratioP2
18520;SDS011;9390;51.244;6.982;2022-09-09T00:00:17;10.73;;;2.95;;
18520;SDS011;9390;51.244;6.982;2022-09-09T00:02:55;9.38;;;2.63;;
18520;SDS011;9390;51.244;6.982;2022-09-09T00:05:31;10.82;;;2.90;;
18520;SDS011;9390;51.244;6.982;2022-09-09T00:08:09;9.70;;;2.40;;
18520;SDS011;9390;51.244;6.982;2022-09-09T00:10:49;9.15;;;2.67;;
18520;SDS011;9390;51.244;6.982;2022-09-09T00:13:25;11.45;;;2.63;;
18520;SDS011;9390;51.244;6.982;2022-09-09T00:23:55;10.95;;;2.63;;
18520;SDS011;9390;51.244;6.982;2022-09-09T00:26:31;16.77;;;3.10;;
18520;SDS011;9390;51.244;6.982;2022-09-09T00:32:39;11.10;;;3.65;;
18520;SDS011;9390;51.244;6.982;2022-09-09T00:42:12;14.52;;;3.92;;
18520;SDS011;9390;51.244;6.982;2022-09-09T00:51:40;11.93;;;4.75;;
18520;SDS011;9390;51.244;6.982;2022-09-09T00:54:38;16.13;;;5.03;;
18520;SDS011;9390;51.244;6.982;2022-09-09T00:57:25;15.68;;;5.93;;
18520;SDS011;9390;51.244;6.982;2022-09-09T01:00:17;21.13;;;6.13;;
18520;SDS011;9390;51.244;6.982;2022-09-09T01:03:28;17.50;;;6.55;;
18520;SDS011;9390;51.244;6.982;2022-09-09T01:06:12;14.23;;;6.32;;
18520;SDS011;9390;51.244;6.982;2022-09-09T01:08:50;21.88;;;8.10;;
18520;SDS011;9390;51.244;6.982;2022-09-09T01:11:32;21.30;;;7.38;;
18520;SDS011;9390;51.244;6.982;2022-09-09T01:16:40;24.80;;;7.88;;
18520;SDS011;9390;51.244;6.982;2022-09-09T01:19:15;23.30;;;7.75;;
18520;SDS011;9390;51.244;6.982;2022-09-09T01:21:54;21.63;;;8.02;;
18520;SDS011;9390;51.244;6.982;2022-09-09T01:24:30;20.40;;;6.53;;
18520;SDS011;9390;51.244;6.982;2022-09-09T01:27:09;19.77;;;7.32;;
18520;SDS011;9390;51.244;6.982;2022-09-09T01:29:41;22.10;;;7.05;;
18520;SDS011;9390;51.244;6.982;2022-09-09T01:35:11;25.08;;;7.13;;
18520;SDS011;9390;51.244;6.982;2022-09-09T01:37:50;20.27;;;7.07;;
18520;SDS011;9390;51.244;6.982;2022-09-09T01:40:21;18.55;;;7.43;;
18520;SDS011;9390;51.244;6.982;2022-09-09T01:42:54;16.85;;;7.47;;
18520;SDS011;9390;51.244;6.982;2022-09-09T01:47:57;19.98;;;7.20;;
18520;SDS011;9390;51.244;6.982;2022-09-09T01:50:29;18.48;;;7.07;;
18520;SDS011;9390;51.244;6.982;2022-09-09T01:53:00;19.02;;;7.40;;
18520;SDS011;9390;51.244;6.982;2022-09-09T01:55:35;17.37;;;7.40;;
18520;SDS011;9390;51.244;6.982;2022-09-09T01:58:14;23.27;;;7.63;;
18520;SDS011;9390;51.244;6.982;2022-09-09T02:03:27;19.15;;;7.05;;
18520;SDS011;9390;51.244;6.982;2022-09-09T02:06:00;25.27;;;6.47;;
18520;SDS011;9390;51.244;6.982;2022-09-09T02:08:39;20.90;;;6.63;;
18520;SDS011;9390;51.244;6.982;2022-09-09T02:11:13;23.58;;;6.95;;
18520;SDS011;9390;51.244;6.982;2022-09-09T02:13:48;24.60;;;6.50;;
18520;SDS011;9390;51.244;6.982;2022-09-09T02:16:21;22.00;;;8.00;;
18520;SDS011;9390;51.244;6.982;2022-09-09T02:18:55;23.40;;;7.03;;
18520;SDS011;9390;51.244;6.982;2022-09-09T02:21:29;30.25;;;7.13;;
18520;SDS011;9390;51.244;6.982;2022-09-09T02:24:05;20.55;;;6.88;;
18520;SDS011;9390;51.244;6.982;2022-09-09T02:26:40;17.45;;;6.57;;
18520;SDS011;9390;51.244;6.982;2022-09-09T02:29:16;16.38;;;5.57;;
18520;SDS011;9390;51.244;6.982;2022-09-09T02:31:50;18.63;;;6.22;;
18520;SDS011;9390;51.244;6.982;2022-09-09T02:34:22;13.55;;;6.20;;
18520;SDS011;9390;51.244;6.982;2022-09-09T02:36:54;20.10;;;6.03;;
18520;SDS011;9390;51.244;6.982;2022-09-09T02:39:26;17.77;;;5.07;;
18520;SDS011;9390;51.244;6.982;2022-09-09T02:41:57;12.27;;;4.57;;
18520;SDS011;9390;51.244;6.982;2022-09-09T02:44:30;15.35;;;5.13;;
18520;SDS011;9390;51.244;6.982;2022-09-09T02:47:05;12.43;;;5.00;;
18520;SDS011;9390;51.244;6.982;2022-09-09T02:49:43;18.35;;;4.70;;
18520;SDS011;9390;51.244;6.982;2022-09-09T02:52:24;16.45;;;4.93;;
18520;SDS011;9390;51.244;6.982;2022-09-09T02:54:59;11.85;;;4.38;;
18520;SDS011;9390;51.244;6.982;2022-09-09T02:57:35;11.90;;;4.30;;
18520;SDS011;9390;51.244;6.982;2022-09-09T03:00:10;14.18;;;4.55;;
18520;SDS011;9390;51.244;6.982;2022-09-09T03:02:42;13.55;;;4.70;;
18520;SDS011;9390;51.244;6.982;2022-09-09T03:05:15;16.95;;;4.47;;
18520;SDS011;9390;51.244;6.982;2022-09-09T03:07:46;17.65;;;4.63;;
18520;SDS011;9390;51.244;6.982;2022-09-09T03:10:19;13.77;;;4.78;;
18520;SDS011;9390;51.244;6.982;2022-09-09T03:12:51;13.00;;;4.93;;
18520;SDS011;9390;51.244;6.982;2022-09-09T03:15:23;17.13;;;4.75;;
18520;SDS011;9390;51.244;6.982;2022-09-09T03:17:59;15.23;;;4.35;;
18520;SDS011;9390;51.244;6.982;2022-09-09T03:20:30;16.33;;;4.68;;
18520;SDS011;9390;51.244;6.982;2022-09-09T03:23:02;17.52;;;4.07;;
18520;SDS011;9390;51.244;6.982;2022-09-09T03:25:34;13.83;;;3.83;;
18520;SDS011;9390;51.244;6.982;2022-09-09T03:28:05;20.40;;;4.43;;
18520;SDS011;9390;51.244;6.982;2022-09-09T03:30:38;13.95;;;4.60;;
18520;SDS011;9390;51.244;6.982;2022-09-09T03:33:09;13.45;;;4.75;;
18520;SDS011;9390;51.244;6.982;2022-09-09T03:35:44;19.30;;;4.63;;
18520;SDS011;9390;51.244;6.982;2022-09-09T03:38:18;12.05;;;4.13;;
18520;SDS011;9390;51.244;6.982;2022-09-09T03:40:50;14.75;;;4.20;;
18520;SDS011;9390;51.244;6.982;2022-09-09T03:43:25;12.00;;;4.65;;
18520;SDS011;9390;51.244;6.982;2022-09-09T03:45:58;19.98;;;4.70;;
18520;SDS011;9390;51.244;6.982;2022-09-09T03:48:30;16.13;;;4.93;;
18520;SDS011;9390;51.244;6.982;2022-09-09T03:51:01;17.73;;;5.25;;
18520;SDS011;9390;51.244;6.982;2022-09-09T03:53:33;19.02;;;5.20;;
18520;SDS011;9390;51.244;6.982;2022-09-09T03:56:04;13.48;;;4.75;;
18520;SDS011;9390;51.244;6.982;2022-09-09T03:58:36;17.00;;;4.83;;
18520;SDS011;9390;51.244;6.982;2022-09-09T04:01:10;14.23;;;4.82;;
18520;SDS011;9390;51.244;6.982;2022-09-09T04:03:44;16.90;;;4.63;;
18520;SDS011;9390;51.244;6.982;2022-09-09T04:06:15;13.13;;;4.78;;
18520;SDS011;9390;51.244;6.982;2022-09-09T04:08:47;15.37;;;4.90;;
18520;SDS011;9390;51.244;6.982;2022-09-09T04:11:19;15.45;;;5.57;;
18520;SDS011;9390;51.244;6.982;2022-09-09T04:13:51;18.55;;;5.13;;
18520;SDS011;9390;51.244;6.982;2022-09-09T04:16:23;15.82;;;4.65;;
18520;SDS011;9390;51.244;6.982;2022-09-09T04:18:55;16.30;;;5.30;;
18520;SDS011;9390;51.244;6.982;2022-09-09T04:21:28;18.30;;;5.43;;
18520;SDS011;9390;51.244;6.982;2022-09-09T04:23:59;19.75;;;5.18;;
18520;SDS011;9390;51.244;6.982;2022-09-09T04:26:30;27.52;;;5.82;;
18520;SDS011;9390;51.244;6.982;2022-09-09T04:29:02;17.23;;;5.10;;
18520;SDS011;9390;51.244;6.982;2022-09-09T04:31:35;15.60;;;4.80;;
18520;SDS011;9390;51.244;6.982;2022-09-09T04:34:07;16.90;;;5.00;;
18520;SDS011;9390;51.244;6.982;2022-09-09T04:36:39;15.35;;;5.18;;
18520;SDS011;9390;51.244;6.982;2022-09-09T04:39:10;15.93;;;5.18;;
18520;SDS011;9390;51.244;6.982;2022-09-09T04:41:42;11.20;;;4.65;;
18520;SDS011;9390;51.244;6.982;2022-09-09T04:44:13;13.20;;;4.65;;
18520;SDS011;9390;51.244;6.982;2022-09-09T04:46:46;16.15;;;4.75;;
18520;SDS011;9390;51.244;6.982;2022-09-09T04:49:17;20.45;;;4.50;;
18520;SDS011;9390;51.244;6.982;2022-09-09T04:51:48;14.57;;;4.85;;
18520;SDS011;9390;51.244;6.982;2022-09-09T04:54:20;13.32;;;4.85;;
18520;SDS011;9390;51.244;6.982;2022-09-09T04:56:51;16.73;;;4.75;;
18520;SDS011;9390;51.244;6.982;2022-09-09T04:59:22;16.35;;;5.35;;
18520;SDS011;9390;51.244;6.982;2022-09-09T05:01:55;15.80;;;4.35;;
18520;SDS011;9390;51.244;6.982;2022-09-09T05:04:27;23.73;;;5.97;;
18520;SDS011;9390;51.244;6.982;2022-09-09T05:06:58;17.52;;;4.97;;
18520;SDS011;9390;51.244;6.982;2022-09-09T05:09:30;15.45;;;4.85;;
18520;SDS011;9390;51.244;6.982;2022-09-09T05:12:01;15.95;;;4.85;;
18520;SDS011;9390;51.244;6.982;2022-09-09T05:14:34;15.57;;;4.53;;
18520;SDS011;9390;51.244;6.982;2022-09-09T05:17:07;18.70;;;5.20;;
18520;SDS011;9390;51.244;6.982;2022-09-09T05:19:39;16.42;;;4.55;;
18520;SDS011;9390;51.244;6.982;2022-09-09T05:22:10;15.45;;;5.20;;
18520;SDS011;9390;51.244;6.982;2022-09-09T05:24:42;9.48;;;4.57;;
18520;SDS011;9390;51.244;6.982;2022-09-09T05:27:14;14.83;;;4.03;;
18520;SDS011;9390;51.244;6.982;2022-09-09T05:29:45;14.95;;;4.53;;
18520;SDS011;9390;51.244;6.982;2022-09-09T05:32:19;15.52;;;4.35;;
18520;SDS011;9390;51.244;6.982;2022-09-09T05:34:50;13.95;;;4.47;;
18520;SDS011;9390;51.244;6.982;2022-09-09T05:37:22;14.50;;;4.13;;
18520;SDS011;9390;51.244;6.982;2022-09-09T05:39:53;13.20;;;4.32;;
18520;SDS011;9390;51.244;6.982;2022-09-09T05:42:24;13.80;;;4.60;;
18520;SDS011;9390;51.244;6.982;2022-09-09T05:44:56;14.40;;;4.70;;
18520;SDS011;9390;51.244;6.982;2022-09-09T05:47:29;17.23;;;4.63;;
18520;SDS011;9390;51.244;6.982;2022-09-09T05:50:00;13.60;;;4.18;;
18520;SDS011;9390;51.244;6.982;2022-09-09T05:52:32;15.18;;;4.88;;
18520;SDS011;9390;51.244;6.982;2022-09-09T05:55:04;18.10;;;4.18;;
18520;SDS011;9390;51.244;6.982;2022-09-09T05:57:36;14.85;;;4.80;;
18520;SDS011;9390;51.244;6.982;2022-09-09T06:00:07;17.95;;;4.72;;
18520;SDS011;9390;51.244;6.982;2022-09-09T06:02:41;15.00;;;4.20;;
18520;SDS011;9390;51.244;6.982;2022-09-09T06:05:12;14.75;;;4.80;;
18520;SDS011;9390;51.244;6.982;2022-09-09T06:07:45;18.35;;;5.05;;
18520;SDS011;9390;51.244;6.982;2022-09-09T06:10:17;21.00;;;4.72;;
18520;SDS011;9390;51.244;6.982;2022-09-09T06:12:51;12.82;;;4.07;;
18520;SDS011;9390;51.244;6.982;2022-09-09T06:15:23;16.42;;;4.40;;
18520;SDS011;9390;51.244;6.982;2022-09-09T06:17:56;16.00;;;4.22;;
18520;SDS011;9390;51.244;6.982;2022-09-09T06:20:27;21.10;;;4.50;;
18520;SDS011;9390;51.244;6.982;2022-09-09T06:23:00;9.00;;;3.35;;
18520;SDS011;9390;51.244;6.982;2022-09-09T06:25:32;15.98;;;4.10;;
18520;SDS011;9390;51.244;6.982;2022-09-09T06:28:04;14.10;;;3.88;;
18520;SDS011;9390;51.244;6.982;2022-09-09T06:30:35;10.13;;;3.35;;
18520;SDS011;9390;51.244;6.982;2022-09-09T06:33:08;11.90;;;3.55;;
18520;SDS011;9390;51.244;6.982;2022-09-09T06:38:11;13.57;;;3.35;;
18520;SDS011;9390;51.244;6.982;2022-09-09T06:40:42;13.45;;;3.33;;
18520;SDS011;9390;51.244;6.982;2022-09-09T06:43:13;12.25;;;3.30;;
18520;SDS011;9390;51.244;6.982;2022-09-09T06:45:52;14.43;;;3.20;;
18520;SDS011;9390;51.244;6.982;2022-09-09T06:48:25;12.02;;;3.28;;
18520;SDS011;9390;51.244;6.982;2022-09-09T06:51:01;14.13;;;3.30;;
18520;SDS011;9390;51.244;6.982;2022-09-09T06:53:34;14.68;;;3.05;;
18520;SDS011;9390;51.244;6.982;2022-09-09T06:56:17;12.23;;;2.92;;
18520;SDS011;9390;51.244;6.982;2022-09-09T06:58:50;10.73;;;2.85;;
18520;SDS011;9390;51.244;6.982;2022-09-09T07:01:23;12.05;;;3.38;;
18520;SDS011;9390;51.244;6.982;2022-09-09T07:06:29;7.78;;;2.78;;
18520;SDS011;9390;51.244;6.982;2022-09-09T07:09:02;12.85;;;3.65;;
18520;SDS011;9390;51.244;6.982;2022-09-09T07:11:36;13.88;;;3.13;;
18520;SDS011;9390;51.244;6.982;2022-09-09T07:14:08;14.05;;;2.95;;
18520;SDS011;9390;51.244;6.982;2022-09-09T07:16:43;10.52;;;3.10;;
18520;SDS011;9390;51.244;6.982;2022-09-09T07:19:16;11.45;;;3.10;;
18520;SDS011;9390;51.244;6.982;2022-09-09T07:21:50;12.05;;;3.13;;
18520;SDS011;9390;51.244;6.982;2022-09-09T07:24:22;15.30;;;3.03;;
18520;SDS011;9390;51.244;6.982;2022-09-09T07:26:53;12.45;;;2.88;;
18520;SDS011;9390;51.244;6.982;2022-09-09T07:29:25;12.70;;;2.75;;
18520;SDS011;9390;51.244;6.982;2022-09-09T07:31:56;8.02;;;2.42;;
18520;SDS011;9390;51.244;6.982;2022-09-09T07:34:30;11.38;;;3.22;;
18520;SDS011;9390;51.244;6.982;2022-09-09T07:37:01;10.75;;;2.65;;
18520;SDS011;9390;51.244;6.982;2022-09-09T07:39:33;12.30;;;2.50;;
18520;SDS011;9390;51.244;6.982;2022-09-09T07:42:04;13.27;;;2.60;;
18520;SDS011;9390;51.244;6.982;2022-09-09T07:44:37;9.52;;;2.47;;
18520;SDS011;9390;51.244;6.982;2022-09-09T07:47:09;9.85;;;3.00;;
18520;SDS011;9390;51.244;6.982;2022-09-09T07:49:42;11.05;;;2.30;;
18520;SDS011;9390;51.244;6.982;2022-09-09T07:52:18;8.35;;;2.15;;
18520;SDS011;9390;51.244;6.982;2022-09-09T07:54:50;14.38;;;2.80;;
18520;SDS011;9390;51.244;6.982;2022-09-09T07:57:22;14.48;;;2.50;;
18520;SDS011;9390;51.244;6.982;2022-09-09T07:59:53;11.05;;;2.03;;
18520;SDS011;9390;51.244;6.982;2022-09-09T08:02:26;8.90;;;2.03;;
18520;SDS011;9390;51.244;6.982;2022-09-09T08:07:32;7.82;;;1.90;;
18520;SDS011;9390;51.244;6.982;2022-09-09T08:10:04;7.43;;;2.00;;
18520;SDS011;9390;51.244;6.982;2022-09-09T08:12:36;13.52;;;2.33;;
18520;SDS011;9390;51.244;6.982;2022-09-09T08:15:07;9.75;;;2.50;;
18520;SDS011;9390;51.244;6.982;2022-09-09T08:17:39;14.05;;;2.22;;
18520;SDS011;9390;51.244;6.982;2022-09-09T08:20:12;12.23;;;2.30;;
18520;SDS011;9390;51.244;6.982;2022-09-09T08:22:43;7.50;;;2.15;;
18520;SDS011;9390;51.244;6.982;2022-09-09T08:25:14;7.53;;;1.90;;
18520;SDS011;9390;51.244;6.982;2022-09-09T08:27:46;6.53;;;1.75;;
18520;SDS011;9390;51.244;6.982;2022-09-09T08:30:17;8.85;;;2.08;;
18520;SDS011;9390;51.244;6.982;2022-09-09T08:32:49;10.63;;;2.30;;
18520;SDS011;9390;51.244;6.982;2022-09-09T08:35:22;8.83;;;1.80;;
18520;SDS011;9390;51.244;6.982;2022-09-09T08:40:26;11.10;;;2.42;;
18520;SDS011;9390;51.244;6.982;2022-09-09T08:43:00;7.40;;;1.77;;
18520;SDS011;9390;51.244;6.982;2022-09-09T08:45:33;10.80;;;2.30;;
18520;SDS011;9390;51.244;6.982;2022-09-09T08:48:15;15.63;;;2.75;;
18520;SDS011;9390;51.244;6.982;2022-09-09T08:50:53;6.07;;;1.90;;
18520;SDS011;9390;51.244;6.982;2022-09-09T08:53:34;8.77;;;2.58;;
18520;SDS011;9390;51.244;6.982;2022-09-09T08:56:09;11.52;;;2.40;;
18520;SDS011;9390;51.244;6.982;2022-09-09T08:58:43;9.73;;;2.03;;
18520;SDS011;9390;51.244;6.982;2022-09-09T09:01:23;10.07;;;2.20;;
18520;SDS011;9390;51.244;6.982;2022-09-09T09:04:04;9.07;;;1.90;;
18520;SDS011;9390;51.244;6.982;2022-09-09T09:06:43;11.15;;;2.10;;
18520;SDS011;9390;51.244;6.982;2022-09-09T09:09:23;5.60;;;1.42;;
18520;SDS011;9390;51.244;6.982;2022-09-09T09:11:58;12.23;;;1.77;;
18520;SDS011;9390;51.244;6.982;2022-09-09T09:14:33;10.48;;;1.90;;
18520;SDS011;9390;51.244;6.982;2022-09-09T09:17:06;6.97;;;1.27;;
18520;SDS011;9390;51.244;6.982;2022-09-09T09:19:41;6.20;;;1.45;;
18520;SDS011;9390;51.244;6.982;2022-09-09T09:22:16;9.23;;;1.65;;
18520;SDS011;9390;51.244;6.982;2022-09-09T09:24:51;9.05;;;1.75;;
18520;SDS011;9390;51.244;6.982;2022-09-09T09:27:30;6.22;;;1.50;;
18520;SDS011;9390;51.244;6.982;2022-09-09T09:30:10;4.75;;;1.48;;
18520;SDS011;9390;51.244;6.982;2022-09-09T09:35:21;8.05;;;1.75;;
18520;SDS011;9390;51.244;6.982;2022-09-09T09:37:55;3.88;;;1.20;;
18520;SDS011;9390;51.244;6.982;2022-09-09T09:40:26;6.63;;;1.48;;
18520;SDS011;9390;51.244;6.982;2022-09-09T09:42:58;10.55;;;1.65;;
18520;SDS011;9390;51.244;6.982;2022-09-09T09:45:32;6.25;;;1.38;;
18520;SDS011;9390;51.244;6.982;2022-09-09T09:48:05;5.82;;;1.40;;
18520;SDS011;9390;51.244;6.982;2022-09-09T09:50:45;8.52;;;1.75;;
18520;SDS011;9390;51.244;6.982;2022-09-09T09:53:23;8.13;;;1.25;;
18520;SDS011;9390;51.244;6.982;2022-09-09T09:55:57;5.90;;;1.20;;
18520;SDS011;9390;51.244;6.982;2022-09-09T10:01:03;6.18;;;1.42;;
18520;SDS011;9390;51.244;6.982;2022-09-09T10:03:36;7.55;;;1.35;;
18520;SDS011;9390;51.244;6.982;2022-09-09T10:06:13;10.52;;;1.60;;
18520;SDS011;9390;51.244;6.982;2022-09-09T10:08:46;11.82;;;1.10;;
18520;SDS011;9390;51.244;6.982;2022-09-09T10:11:26;6.97;;;1.15;;
18520;SDS011;9390;51.244;6.982;2022-09-09T10:14:04;6.80;;;1.10;;
18520;SDS011;9390;51.244;6.982;2022-09-09T10:16:41;7.03;;;1.70;;
18520;SDS011;9390;51.244;6.982;2022-09-09T10:19:19;4.75;;;1.35;;
18520;SDS011;9390;51.244;6.982;2022-09-09T10:21:57;2.75;;;0.90;;
18520;SDS011;9390;51.244;6.982;2022-09-09T10:27:30;5.85;;;1.00;;
18520;SDS011;9390;51.244;6.982;2022-09-09T10:30:08;4.68;;;1.08;;
18520;SDS011;9390;51.244;6.982;2022-09-09T10:32:48;5.60;;;1.35;;
18520;SDS011;9390;51.244;6.982;2022-09-09T10:35:24;6.88;;;0.98;;
18520;SDS011;9390;51.244;6.982;2022-09-09T10:38:15;4.10;;;1.05;;
18520;SDS011;9390;51.244;6.982;2022-09-09T10:40:59;9.60;;;1.40;;
18520;SDS011;9390;51.244;6.982;2022-09-09T10:43:42;7.38;;;1.20;;
18520;SDS011;9390;51.244;6.982;2022-09-09T10:46:23;5.05;;;1.10;;
18520;SDS011;9390;51.244;6.982;2022-09-09T10:49:02;6.32;;;1.13;;
18520;SDS011;9390;51.244;6.982;2022-09-09T10:51:40;7.05;;;1.25;;
18520;SDS011;9390;51.244;6.982;2022-09-09T10:54:22;5.07;;;1.40;;
18520;SDS011;9390;51.244;6.982;2022-09-09T10:57:00;6.47;;;1.30;;
18520;SDS011;9390;51.244;6.982;2022-09-09T10:59:38;6.00;;;1.10;;
18520;SDS011;9390;51.244;6.982;2022-09-09T11:02:12;7.50;;;1.27;;
18520;SDS011;9390;51.244;6.982;2022-09-09T11:04:48;5.68;;;1.05;;
18520;SDS011;9390;51.244;6.982;2022-09-09T11:07:25;8.73;;;1.42;;
18520;SDS011;9390;51.244;6.982;2022-09-09T11:10:01;4.57;;;1.27;;
18520;SDS011;9390;51.244;6.982;2022-09-09T11:12:36;8.23;;;1.23;;
18520;SDS011;9390;51.244;6.982;2022-09-09T11:15:14;4.15;;;1.00;;
18520;SDS011;9390;51.244;6.982;2022-09-09T11:17:49;7.90;;;1.13;;
18520;SDS011;9390;51.244;6.982;2022-09-09T11:20:22;5.30;;;1.17;;
18520;SDS011;9390;51.244;6.982;2022-09-09T11:22:55;4.57;;;1.45;;
18520;SDS011;9390;51.244;6.982;2022-09-09T11:25:32;4.18;;;1.38;;
18520;SDS011;9390;51.244;6.982;2022-09-09T11:28:13;5.53;;;1.23;;
18520;SDS011;9390;51.244;6.982;2022-09-09T11:30:57;7.60;;;1.10;;
18520;SDS011;9390;51.244;6.982;2022-09-09T11:33:55;5.38;;;1.33;;
18520;SDS011;9390;51.244;6.982;2022-09-09T11:36:48;7.47;;;1.52;;
18520;SDS011;9390;51.244;6.982;2022-09-09T11:39:36;8.40;;;1.80;;
18520;SDS011;9390;51.244;6.982;2022-09-09T11:42:16;5.65;;;1.52;;
18520;SDS011;9390;51.244;6.982;2022-09-09T11:44:49;8.63;;;2.03;;
18520;SDS011;9390;51.244;6.982;2022-09-09T11:47:23;7.18;;;1.58;;
18520;SDS011;9390;51.244;6.982;2022-09-09T11:50:07;6.35;;;1.98;;
18520;SDS011;9390;51.244;6.982;2022-09-09T11:52:43;7.15;;;2.10;;
18520;SDS011;9390;51.244;6.982;2022-09-09T11:55:24;4.63;;;1.63;;
18520;SDS011;9390;51.244;6.982;2022-09-09T11:57:57;8.10;;;1.95;;
18520;SDS011;9390;51.244;6.982;2022-09-09T12:00:34;5.43;;;1.60;;
18520;SDS011;9390;51.244;6.982;2022-09-09T12:03:09;9.68;;;1.75;;
18520;SDS011;9390;51.244;6.982;2022-09-09T12:06:12;4.50;;;1.25;;
18520;SDS011;9390;51.244;6.982;2022-09-09T12:08:47;6.47;;;1.75;;
18520;SDS011;9390;51.244;6.982;2022-09-09T12:11:25;5.60;;;1.65;;
18520;SDS011;9390;51.244;6.982;2022-09-09T12:13:58;4.60;;;1.52;;
18520;SDS011;9390;51.244;6.982;2022-09-09T12:19:07;4.57;;;1.20;;
18520;SDS011;9390;51.244;6.982;2022-09-09T12:21:49;5.97;;;1.55;;
18520;SDS011;9390;51.244;6.982;2022-09-09T12:24:27;6.50;;;1.73;;
18520;SDS011;9390;51.244;6.982;2022-09-09T12:27:04;10.13;;;2.35;;
18520;SDS011;9390;51.244;6.982;2022-09-09T12:29:40;9.25;;;2.33;;
18520;SDS011;9390;51.244;6.982;2022-09-09T12:32:16;7.55;;;2.00;;
18520;SDS011;9390;51.244;6.982;2022-09-09T12:34:52;7.03;;;1.75;;
18520;SDS011;9390;51.244;6.982;2022-09-09T12:37:27;5.53;;;1.58;;
18520;SDS011;9390;51.244;6.982;2022-09-09T12:40:01;11.45;;;2.47;;
18520;SDS011;9390;51.244;6.982;2022-09-09T12:42:39;8.52;;;2.20;;
18520;SDS011;9390;51.244;6.982;2022-09-09T12:45:15;10.15;;;2.33;;
18520;SDS011;9390;51.244;6.982;2022-09-09T12:47:48;8.55;;;2.67;;
18520;SDS011;9390;51.244;6.982;2022-09-09T12:50:26;11.93;;;2.45;;
18520;SDS011;9390;51.244;6.982;2022-09-09T12:52:59;10.82;;;2.17;;
18520;SDS011;9390;51.244;6.982;2022-09-09T12:55:35;7.32;;;1.80;;
18520;SDS011;9390;51.244;6.982;2022-09-09T12:58:11;10.90;;;2.15;;
18520;SDS011;9390;51.244;6.982;2022-09-09T13:00:48;11.13;;;2.13;;
18520;SDS011;9390;51.244;6.982;2022-09-09T13:03:22;7.00;;;1.98;;
18520;SDS011;9390;51.244;6.982;2022-09-09T13:05:58;7.28;;;2.05;;
18520;SDS011;9390;51.244;6.982;2022-09-09T13:08:41;8.57;;;2.13;;
18520;SDS011;9390;51.244;6.982;2022-09-09T13:11:13;7.88;;;2.00;;
18520;SDS011;9390;51.244;6.982;2022-09-09T13:13:50;14.35;;;3.28;;
18520;SDS011;9390;51.244;6.982;2022-09-09T13:16:24;27.15;;;3.40;;
18520;SDS011;9390;51.244;6.982;2022-09-09T13:19:01;8.57;;;2.42;;
18520;SDS011;9390;51.244;6.982;2022-09-09T13:21:35;8.65;;;2.75;;
18520;SDS011;9390;51.244;6.982;2022-09-09T13:24:21;10.13;;;3.30;;
18520;SDS011;9390;51.244;6.982;2022-09-09T13:26:58;11.60;;;3.47;;
18520;SDS011;9390;51.244;6.982;2022-09-09T13:29:32;9.95;;;3.00;;
18520;SDS011;9390;51.244;6.982;2022-09-09T13:32:04;9.85;;;3.38;;
18520;SDS011;9390;51.244;6.982;2022-09-09T13:34:37;11.02;;;3.40;;
18520;SDS011;9390;51.244;6.982;2022-09-09T13:37:16;8.85;;;2.90;;
18520;SDS011;9390;51.244;6.982;2022-09-09T13:39:53;10.00;;;3.22;;
18520;SDS011;9390;51.244;6.982;2022-09-09T13:42:25;8.13;;;2.58;;
18520;SDS011;9390;51.244;6.982;2022-09-09T13:44:57;13.55;;;2.80;;
18520;SDS011;9390;51.244;6.982;2022-09-09T13:47:30;9.20;;;2.70;;
18520;SDS011;9390;51.244;6.982;2022-09-09T13:50:10;8.38;;;2.72;;
18520;SDS011;9390;51.244;6.982;2022-09-09T13:52:51;10.35;;;3.25;;
18520;SDS011;9390;51.244;6.982;2022-09-09T13:55:24;8.27;;;2.47;;
18520;SDS011;9390;51.244;6.982;2022-09-09T14:00:31;8.02;;;2.47;;
18520;SDS011;9390;51.244;6.982;2022-09-09T14:05:34;6.50;;;2.30;;
18520;SDS011;9390;51.244;6.982;2022-09-09T14:08:07;10.65;;;2.65;;
18520;SDS011;9390;51.244;6.982;2022-09-09T14:10:46;9.32;;;2.60;;
18520;SDS011;9390;51.244;6.982;2022-09-09T14:13:18;13.15;;;2.65;;
18520;SDS011;9390;51.244;6.982;2022-09-09T14:15:51;11.18;;;3.35;;
18520;SDS011;9390;51.244;6.982;2022-09-09T14:18:23;9.85;;;3.00;;
18520;SDS011;9390;51.244;6.982;2022-09-09T14:20:55;10.43;;;2.92;;
18520;SDS011;9390;51.244;6.982;2022-09-09T14:23:28;13.95;;;3.50;;
18520;SDS011;9390;51.244;6.982;2022-09-09T14:26:00;11.52;;;3.83;;
18520;SDS011;9390;51.244;6.982;2022-09-09T14:28:31;13.18;;;4.28;;
18520;SDS011;9390;51.244;6.982;2022-09-09T14:31:03;10.75;;;3.97;;
18520;SDS011;9390;51.244;6.982;2022-09-09T14:33:35;15.20;;;5.60;;
18520;SDS011;9390;51.244;6.982;2022-09-09T14:36:06;11.98;;;4.32;;
18520;SDS011;9390;51.244;6.982;2022-09-09T14:38:39;9.82;;;3.60;;
18520;SDS011;9390;51.244;6.982;2022-09-09T14:41:12;12.70;;;3.42;;
18520;SDS011;9390;51.244;6.982;2022-09-09T14:43:46;9.80;;;3.08;;
18520;SDS011;9390;51.244;6.982;2022-09-09T14:46:18;5.85;;;2.42;;
18520;SDS011;9390;51.244;6.982;2022-09-09T14:48:52;7.13;;;2.65;;
18520;SDS011;9390;51.244;6.982;2022-09-09T14:51:24;8.57;;;2.90;;
18520;SDS011;9390;51.244;6.982;2022-09-09T14:53:58;8.05;;;2.80;;
18520;SDS011;9390;51.244;6.982;2022-09-09T14:56:32;7.70;;;2.20;;
18520;SDS011;9390;51.244;6.982;2022-09-09T14:59:04;7.43;;;1.55;;
18520;SDS011;9390;51.244;6.982;2022-09-09T15:01:35;8.80;;;1.55;;
18520;SDS011;9390;51.244;6.982;2022-09-09T15:04:10;4.55;;;1.20;;
18520;SDS011;9390;51.244;6.982;2022-09-09T15:06:44;21.23;;;2.17;;
18520;SDS011;9390;51.244;6.982;2022-09-09T15:09:19;3.67;;;1.20;;
18520;SDS011;9390;51.244;6.982;2022-09-09T15:11:50;16.73;;;2.08;;
18520;SDS011;9390;51.244;6.982;2022-09-09T15:14:22;22.33;;;2.35;;
18520;SDS011;9390;51.244;6.982;2022-09-09T15:16:53;3.35;;;1.40;;
18520;SDS011;9390;51.244;6.982;2022-09-09T15:19:24;8.20;;;1.60;;
18520;SDS011;9390;51.244;6.982;2022-09-09T15:21:56;4.57;;;1.50;;
18520;SDS011;9390;51.244;6.982;2022-09-09T15:24:28;7.32;;;1.38;;
18520;SDS011;9390;51.244;6.982;2022-09-09T15:27:00;5.97;;;1.50;;
18520;SDS011;9390;51.244;6.982;2022-09-09T15:29:32;8.85;;;1.55;;
18520;SDS011;9390;51.244;6.982;2022-09-09T15:32:03;7.75;;;1.83;;
18520;SDS011;9390;51.244;6.982;2022-09-09T15:34:35;9.48;;;1.60;;
18520;SDS011;9390;51.244;6.982;2022-09-09T15:37:06;6.40;;;1.60;;
18520;SDS011;9390;51.244;6.982;2022-09-09T15:39:42;6.90;;;1.70;;
18520;SDS011;9390;51.244;6.982;2022-09-09T15:42:13;9.98;;;1.83;;
18520;SDS011;9390;51.244;6.982;2022-09-09T15:44:45;6.50;;;2.00;;
18520;SDS011;9390;51.244;6.982;2022-09-09T15:47:16;7.38;;;1.98;;
18520;SDS011;9390;51.244;6.982;2022-09-09T15:49:48;6.38;;;1.70;;
18520;SDS011;9390;51.244;6.982;2022-09-09T15:52:20;8.13;;;1.83;;
18520;SDS011;9390;51.244;6.982;2022-09-09T15:54:53;8.63;;;2.25;;
18520;SDS011;9390;51.244;6.982;2022-09-09T15:59:56;11.20;;;2.45;;
18520;SDS011;9390;51.244;6.982;2022-09-09T16:02:29;7.22;;;1.92;;
18520;SDS011;9390;51.244;6.982;2022-09-09T16:05:01;7.80;;;2.17;;
18520;SDS011;9390;51.244;6.982;2022-09-09T16:07:32;6.53;;;2.00;;
18520;SDS011;9390;51.244;6.982;2022-09-09T16:10:07;7.00;;;2.33;;
18520;SDS011;9390;51.244;6.982;2022-09-09T16:12:39;8.73;;;2.20;;
18520;SDS011;9390;51.244;6.982;2022-09-09T16:15:10;6.45;;;2.03;;
18520;SDS011;9390;51.244;6.982;2022-09-09T16:17:42;6.72;;;2.33;;
18520;SDS011;9390;51.244;6.982;2022-09-09T16:20:14;9.25;;;2.65;;
18520;SDS011;9390;51.244;6.982;2022-09-09T16:22:46;9.70;;;2.83;;
18520;SDS011;9390;51.244;6.982;2022-09-09T16:25:18;11.38;;;2.72;;
18520;SDS011;9390;51.244;6.982;2022-09-09T16:27:50;16.80;;;3.15;;
18520;SDS011;9390;51.244;6.982;2022-09-09T16:30:23;13.70;;;3.30;;
18520;SDS011;9390;51.244;6.982;2022-09-09T16:32:54;14.23;;;3.03;;
18520;SDS011;9390;51.244;6.982;2022-09-09T16:35:25;14.15;;;3.45;;
18520;SDS011;9390;51.244;6.982;2022-09-09T16:37:57;12.38;;;3.47;;
18520;SDS011;9390;51.244;6.982;2022-09-09T16:40:30;9.93;;;3.45;;